createdAt,value
2018-01-27T00:02:13.983Z,83.20
2018-01-27T00:04:41.505Z,83.20
2018-01-27T00:07:10.863Z,86.80
2018-01-27T00:09:38.381Z,85.43
2018-01-27T00:12:05.891Z,85.00
2018-01-27T00:14:33.395Z,85.80
2018-01-27T00:17:00.900Z,81.10
2018-01-27T00:19:29.198Z,83.43
2018-01-27T00:21:56.713Z,83.13
2018-01-27T00:24:24.229Z,85.20
2018-01-27T00:26:51.758Z,75.87
2018-01-27T00:29:20.063Z,83.97
2018-01-27T00:31:47.565Z,83.03
2018-01-27T00:34:15.079Z,84.80
2018-01-27T00:36:42.583Z,87.77
2018-01-27T00:39:10.087Z,84.20
2018-01-27T00:41:37.615Z,88.00
2018-01-27T00:44:05.121Z,86.47
2018-01-27T00:46:32.777Z,84.47
2018-01-27T00:49:00.301Z,81.97
2018-01-27T00:51:28.579Z,85.67
2018-01-27T00:53:56.855Z,80.87
2018-01-27T00:56:25.127Z,82.37
2018-01-27T00:58:52.635Z,82.50
2018-01-27T01:01:20.153Z,83.50
2018-01-27T01:03:47.685Z,83.43
2018-01-27T01:06:15.191Z,82.67
2018-01-27T01:08:42.699Z,82.03
2018-01-27T01:11:10.215Z,82.80
2018-01-27T01:13:37.722Z,80.17
2018-01-27T01:16:05.236Z,81.93
2018-01-27T01:18:33.520Z,81.00
2018-01-27T01:21:01.023Z,83.13
2018-01-27T01:23:28.519Z,85.10
2018-01-27T01:25:56.031Z,79.77
2018-01-27T01:28:23.539Z,81.70
2018-01-27T01:30:51.048Z,80.63
2018-01-27T01:33:18.555Z,81.30
2018-01-27T01:35:46.063Z,79.93
2018-01-27T01:38:13.563Z,78.70
2018-01-27T01:40:41.095Z,79.13
2018-01-27T01:43:14.190Z,80.27
2018-01-27T01:45:41.697Z,82.00
2018-01-27T01:48:09.222Z,83.63
2018-01-27T01:50:36.725Z,82.50
2018-01-27T01:53:04.239Z,80.73
2018-01-27T01:55:31.772Z,83.47
2018-01-27T01:57:59.527Z,85.30
2018-01-27T02:00:27.052Z,82.00
2018-01-27T02:02:54.585Z,81.43
2018-01-27T02:05:22.111Z,79.53
2018-01-27T02:07:49.623Z,81.50
2018-01-27T02:10:17.148Z,87.27
2018-01-27T02:12:44.655Z,83.97
2018-01-27T02:15:12.167Z,82.73
2018-01-27T02:17:40.459Z,85.07
2018-01-27T02:20:07.963Z,88.67
2018-01-27T02:22:35.471Z,88.93
2018-01-27T02:25:03.015Z,87.23
2018-01-27T02:27:31.305Z,90.47
2018-01-27T02:29:58.806Z,84.23
2018-01-27T02:32:26.337Z,85.50
2018-01-27T02:34:53.855Z,82.27
2018-01-27T02:37:22.147Z,90.07
2018-01-27T02:39:50.439Z,87.90
2018-01-27T02:42:17.953Z,89.80
2018-01-27T02:44:45.464Z,92.00
2018-01-27T02:47:13.143Z,90.67
2018-01-27T02:49:40.666Z,89.37
2018-01-27T02:52:08.947Z,91.00
2018-01-27T02:54:37.222Z,88.33
2018-01-27T02:57:05.497Z,89.47
2018-01-27T02:59:33.771Z,90.40
2018-01-27T03:02:02.083Z,88.13
2018-01-27T03:04:29.595Z,88.60
2018-01-27T03:06:57.104Z,90.50
2018-01-27T03:09:24.635Z,90.30
2018-01-27T03:11:52.147Z,90.43
2018-01-27T03:14:19.646Z,92.23
2018-01-27T03:16:47.165Z,87.17
2018-01-27T03:19:14.654Z,89.37
2018-01-27T03:21:42.942Z,84.83
2018-01-27T03:24:10.457Z,89.67
2018-01-27T03:26:37.973Z,87.93
2018-01-27T03:29:05.483Z,87.70
2018-01-27T03:31:33.013Z,87.07
2018-01-27T03:34:00.520Z,75.60
2018-01-27T03:36:28.805Z,67.47
2018-01-27T03:38:56.315Z,66.87
2018-01-27T03:41:23.831Z,66.07
2018-01-27T03:43:51.337Z,57.37
2018-01-27T03:46:18.853Z,59.27
2018-01-27T03:48:46.355Z,58.53
2018-01-27T03:51:13.863Z,57.40
2018-01-27T03:53:41.381Z,56.57
2018-01-27T03:56:08.893Z,56.63
2018-01-27T03:58:36.405Z,54.87
2018-01-27T04:01:03.947Z,54.23
2018-01-27T04:03:31.455Z,57.80
2018-01-27T04:05:58.965Z,54.50
2018-01-27T04:08:26.496Z,54.07
2018-01-27T04:10:53.991Z,51.23
2018-01-27T04:13:21.521Z,50.43
2018-01-27T04:15:49.035Z,53.27
2018-01-27T04:18:17.319Z,53.83
2018-01-27T04:20:45.600Z,48.23
2018-01-27T04:23:13.863Z,49.30
2018-01-27T04:25:42.143Z,50.20
2018-01-27T04:28:10.427Z,49.63
2018-01-27T04:30:38.746Z,52.67
2018-01-27T04:33:06.223Z,51.00
2018-01-27T04:35:33.730Z,52.60
2018-01-27T04:38:01.253Z,50.30
2018-01-27T04:40:28.746Z,53.30
2018-01-27T04:42:56.267Z,54.53
2018-01-27T04:45:23.769Z,55.03
2018-01-27T04:47:51.279Z,53.00
2018-01-27T04:50:18.803Z,51.03
2018-01-27T04:52:46.310Z,51.27
2018-01-27T04:55:14.585Z,48.60
2018-01-27T04:57:42.096Z,50.10
2018-01-27T05:00:09.600Z,49.03
2018-01-27T05:02:37.145Z,46.90
2018-01-27T05:05:04.621Z,46.60
2018-01-27T05:07:32.125Z,45.87
2018-01-27T05:09:59.645Z,41.97
2018-01-27T05:12:27.930Z,43.47
2018-01-27T05:14:55.451Z,41.43
2018-01-27T05:17:22.954Z,40.73
2018-01-27T05:19:50.491Z,39.83
2018-01-27T05:22:18.771Z,39.90
2018-01-27T05:24:47.053Z,38.17
2018-01-27T05:27:15.335Z,33.93
2018-01-27T05:29:43.600Z,34.67
2018-01-27T05:32:11.867Z,33.30
2018-01-27T05:34:40.166Z,32.50
2018-01-27T05:37:08.439Z,33.70
2018-01-27T05:39:36.716Z,30.57
2018-01-27T05:42:05.002Z,31.67
2018-01-27T05:44:32.521Z,29.93
2018-01-27T05:47:00.030Z,29.57
2018-01-27T05:49:27.538Z,29.83
2018-01-27T05:51:55.056Z,30.27
2018-01-27T05:54:22.564Z,31.33
2018-01-27T05:56:50.074Z,32.20
2018-01-27T05:59:17.580Z,30.97
2018-01-27T06:01:45.080Z,27.47
2018-01-27T06:04:12.597Z,29.30
2018-01-27T06:06:40.094Z,26.80
2018-01-27T06:09:07.607Z,26.80
2018-01-27T06:11:35.116Z,27.47
2018-01-27T06:14:02.642Z,26.87
2018-01-27T06:16:30.915Z,26.70
2018-01-27T06:18:59.194Z,26.20
2018-01-27T06:21:26.704Z,25.70
2018-01-27T06:23:54.219Z,27.83
2018-01-27T06:26:22.501Z,26.50
2018-01-27T06:28:50.770Z,23.67
2018-01-27T06:31:19.065Z,21.67
2018-01-27T06:33:46.582Z,21.37
2018-01-27T06:36:14.093Z,21.17
2018-01-27T06:38:41.614Z,20.30
2018-01-27T06:41:09.893Z,19.40
2018-01-27T06:43:38.171Z,19.63
2018-01-27T06:46:06.442Z,19.90
2018-01-27T06:48:34.123Z,19.77
2018-01-27T06:51:02.390Z,18.60
2018-01-27T06:53:30.672Z,18.57
2018-01-27T06:55:58.968Z,18.53
2018-01-27T06:58:26.487Z,17.73
2018-01-27T07:00:53.999Z,18.23
2018-01-27T07:03:21.518Z,16.33
2018-01-27T07:05:49.796Z,17.03
2018-01-27T07:08:18.064Z,15.40
2018-01-27T07:10:46.344Z,17.53
2018-01-27T07:13:14.614Z,18.23
2018-01-27T07:15:42.881Z,16.97
2018-01-27T07:18:10.393Z,18.00
2018-01-27T07:20:37.901Z,18.80
2018-01-27T07:23:05.400Z,20.47
2018-01-27T07:25:32.918Z,21.00
2018-01-27T07:28:00.432Z,19.80
2018-01-27T07:30:27.932Z,20.23
2018-01-27T07:32:55.461Z,22.17
2018-01-27T07:35:22.971Z,21.87
2018-01-27T07:37:51.249Z,21.57
2018-01-27T07:40:19.521Z,22.80
2018-01-27T07:42:47.800Z,21.03
2018-01-27T07:45:15.312Z,22.30
2018-01-27T07:47:42.850Z,22.27
2018-01-27T07:50:10.371Z,23.17
2018-01-27T07:52:38.652Z,21.67
2018-01-27T07:55:06.940Z,23.57
2018-01-27T07:57:34.438Z,22.87
2018-01-27T08:00:01.946Z,21.07
2018-01-27T08:02:29.509Z,22.57
2018-01-27T08:04:57.038Z,21.57
2018-01-27T08:07:24.540Z,22.97
2018-01-27T08:09:52.057Z,21.90
2018-01-27T08:12:19.558Z,22.43
2018-01-27T08:14:47.079Z,22.40
2018-01-27T08:17:15.390Z,20.47
2018-01-27T08:19:42.892Z,20.77
2018-01-27T08:22:10.392Z,21.27
2018-01-27T08:24:38.674Z,19.67
2018-01-27T08:27:06.189Z,20.73
2018-01-27T08:29:33.705Z,21.37
2018-01-27T08:32:01.224Z,24.13
2018-01-27T08:34:28.745Z,21.53
2018-01-27T08:36:56.276Z,22.40
2018-01-27T08:39:23.800Z,22.23
2018-01-27T08:41:51.317Z,22.27
2018-01-27T08:44:18.816Z,20.53
2018-01-27T08:46:46.376Z,21.30
2018-01-27T08:49:13.876Z,20.77
2018-01-27T08:51:41.420Z,20.87
2018-01-27T08:54:08.926Z,20.63
2018-01-27T08:56:36.429Z,20.60
2018-01-27T08:59:04.700Z,22.60
2018-01-27T09:01:32.989Z,22.47
2018-01-27T09:04:01.250Z,22.43
2018-01-27T09:06:28.760Z,22.10
2018-01-27T09:08:56.276Z,21.67
2018-01-27T09:11:23.784Z,22.57
2018-01-27T09:13:51.297Z,21.90
2018-01-27T09:16:19.572Z,21.07
2018-01-27T09:18:47.861Z,22.07
2018-01-27T09:21:15.397Z,23.00
2018-01-27T09:23:42.932Z,22.63
2018-01-27T09:26:10.444Z,22.37
2018-01-27T09:28:37.958Z,22.63
2018-01-27T09:31:05.488Z,21.53
2018-01-27T09:33:33.776Z,20.53
2018-01-27T09:36:01.315Z,21.97
2018-01-27T09:38:28.848Z,22.67
2018-01-27T09:40:56.394Z,23.23
2018-01-27T09:43:24.680Z,22.43
2018-01-27T09:45:52.196Z,23.70
2018-01-27T09:48:19.698Z,22.93
2018-01-27T09:50:47.240Z,22.00
2018-01-27T09:53:15.528Z,21.73
2018-01-27T09:55:43.810Z,22.30
2018-01-27T09:58:11.314Z,22.67
2018-01-27T10:00:38.831Z,21.97
2018-01-27T10:03:06.346Z,23.40
2018-01-27T10:05:33.856Z,22.13
2018-01-27T10:08:01.350Z,23.93
2018-01-27T10:10:28.848Z,23.40
2018-01-27T10:12:56.366Z,24.43
2018-01-27T10:15:23.880Z,23.90
2018-01-27T10:17:51.396Z,24.60
2018-01-27T10:20:18.972Z,23.00
2018-01-27T10:22:46.481Z,24.67
2018-01-27T10:25:13.972Z,24.27
2018-01-27T10:27:41.500Z,23.33
2018-01-27T10:30:09.017Z,24.87
2018-01-27T10:32:37.297Z,26.10
2018-01-27T10:35:05.590Z,23.63
2018-01-27T10:37:33.117Z,24.20
2018-01-27T10:40:00.976Z,25.07
2018-01-27T10:42:28.573Z,25.37
2018-01-27T10:44:56.072Z,24.63
2018-01-27T10:47:23.579Z,23.63
2018-01-27T10:49:51.863Z,24.03
2018-01-27T10:52:19.392Z,22.90
2018-01-27T10:54:46.897Z,24.53
2018-01-27T10:57:14.424Z,24.40
2018-01-27T10:59:42.696Z,23.63
2018-01-27T11:02:10.963Z,24.10
2018-01-27T11:04:38.476Z,23.77
2018-01-27T11:07:06.749Z,23.67
2018-01-27T11:09:34.259Z,23.87
2018-01-27T11:12:01.779Z,24.23
2018-01-27T11:14:29.291Z,24.17
2018-01-27T11:16:57.580Z,23.80
2018-01-27T11:19:25.857Z,24.33
2018-01-27T11:21:53.360Z,24.73
2018-01-27T11:24:20.868Z,23.47
2018-01-27T11:26:48.382Z,23.53
2018-01-27T11:29:15.890Z,23.03
2018-01-27T11:31:43.395Z,23.37
2018-01-27T11:34:10.911Z,22.97
2018-01-27T11:36:38.414Z,23.90
2018-01-27T11:39:05.919Z,22.63
2018-01-27T11:41:34.210Z,21.93
2018-01-27T11:44:01.735Z,20.73
2018-01-27T11:46:29.233Z,22.93
2018-01-27T11:48:56.771Z,23.47
2018-01-27T11:51:25.039Z,22.23
2018-01-27T11:53:52.553Z,22.37
2018-01-27T11:56:20.077Z,22.60
2018-01-27T11:58:47.575Z,21.53
2018-01-27T12:01:15.086Z,20.83
2018-01-27T12:03:42.637Z,21.27
2018-01-27T12:06:10.930Z,21.57
2018-01-27T12:08:38.453Z,20.23
2018-01-27T12:11:05.958Z,20.90
2018-01-27T12:13:33.465Z,19.07
2018-01-27T12:16:00.967Z,19.73
2018-01-27T12:18:28.499Z,19.63
2018-01-27T12:20:56.799Z,20.83
2018-01-27T12:23:29.961Z,19.00
2018-01-27T12:25:58.331Z,19.93
2018-01-27T12:28:25.936Z,19.87
2018-01-27T12:30:53.619Z,20.77
2018-01-27T12:33:21.931Z,18.57
2018-01-27T12:35:49.442Z,20.10
2018-01-27T12:38:17.029Z,18.47
2018-01-27T12:40:44.517Z,19.73
2018-01-27T12:43:12.797Z,18.73
2018-01-27T12:45:40.365Z,19.87
2018-01-27T12:48:07.880Z,19.97
2018-01-27T12:50:35.396Z,19.87
2018-01-27T12:53:02.921Z,19.53
2018-01-27T12:55:30.440Z,18.80
2018-01-27T12:57:57.978Z,17.77
2018-01-27T13:00:25.504Z,17.90
2018-01-27T13:02:53.019Z,18.60
2018-01-27T13:05:20.542Z,19.73
2018-01-27T13:07:48.060Z,20.53
2018-01-27T13:10:15.570Z,19.57
2018-01-27T13:12:43.092Z,19.37
2018-01-27T13:15:10.646Z,18.67
2018-01-27T13:17:38.154Z,19.87
2018-01-27T13:20:05.675Z,19.53
2018-01-27T13:22:33.202Z,18.37
2018-01-27T13:25:00.712Z,18.00
2018-01-27T13:27:28.240Z,18.10
2018-01-27T13:29:55.788Z,18.40
2018-01-27T13:32:23.288Z,18.43
2018-01-27T13:34:50.820Z,18.97
2018-01-27T13:37:18.380Z,18.30
2018-01-27T13:39:45.932Z,18.70
2018-01-27T13:42:13.437Z,18.67
2018-01-27T13:44:40.963Z,18.30
2018-01-27T13:47:09.247Z,17.37
2018-01-27T13:49:37.520Z,20.30
2018-01-27T13:52:05.817Z,18.30
2018-01-27T13:54:33.322Z,18.03
2018-01-27T13:57:00.920Z,16.77
2018-01-27T13:59:29.396Z,18.37
2018-01-27T14:01:57.210Z,18.60
2018-01-27T14:04:25.026Z,19.37
2018-01-27T14:06:52.844Z,20.27
2018-01-27T14:09:20.646Z,21.93
2018-01-27T14:11:49.333Z,18.77
2018-01-27T14:14:17.879Z,21.73
2018-01-27T14:16:45.518Z,20.90
2018-01-27T14:19:13.112Z,18.37
2018-01-27T14:21:40.712Z,19.07
2018-01-27T14:24:09.018Z,18.73
2018-01-27T14:26:36.589Z,20.80
2018-01-27T14:29:04.165Z,19.10
2018-01-27T14:31:31.722Z,19.97
2018-01-27T14:33:59.311Z,19.70
2018-01-27T14:36:38.735Z,17.97
2018-01-27T14:39:07.501Z,19.53
2018-01-27T14:41:35.087Z,19.37
2018-01-27T14:44:02.735Z,20.30
2018-01-27T14:46:30.321Z,20.87
2018-01-27T14:48:57.918Z,20.17
2018-01-27T14:51:25.523Z,19.43
2018-01-27T14:53:53.058Z,20.63
2018-01-27T14:56:20.626Z,19.73
2018-01-27T14:58:48.208Z,19.73
2018-01-27T15:01:15.783Z,19.67
2018-01-27T15:03:43.392Z,20.63
2018-01-27T15:06:11.805Z,21.30
2018-01-27T15:08:39.369Z,19.00
2018-01-27T15:11:06.897Z,19.90
2018-01-27T15:13:34.449Z,18.33
2018-01-27T15:16:02.019Z,17.17
2018-01-27T15:18:29.576Z,18.80
2018-01-27T15:20:57.171Z,17.50
2018-01-27T15:23:24.809Z,18.00
2018-01-27T15:25:52.379Z,17.80
2018-01-27T15:28:19.944Z,16.63
2018-01-27T15:30:47.527Z,16.77
2018-01-27T15:33:15.396Z,16.73
2018-01-27T15:35:42.975Z,16.80
2018-01-27T15:38:10.859Z,19.87
2018-01-27T15:40:38.729Z,18.33
2018-01-27T15:43:06.278Z,18.70
2018-01-27T15:45:33.802Z,18.53
2018-01-27T15:48:01.336Z,17.80
2018-01-27T15:50:28.925Z,18.50
2018-01-27T15:52:56.434Z,17.40
2018-01-27T15:55:24.030Z,19.00
2018-01-27T15:57:51.722Z,18.07
2018-01-27T16:00:19.271Z,17.80
2018-01-27T16:02:48.402Z,18.40
2018-01-27T16:05:15.993Z,18.43
2018-01-27T16:07:43.500Z,18.00
2018-01-27T16:10:11.802Z,17.30
2018-01-27T16:12:39.397Z,17.63
2018-01-27T16:15:07.742Z,17.77
2018-01-27T16:17:35.330Z,19.27
2018-01-27T16:20:02.876Z,19.57
2018-01-27T16:22:30.425Z,18.57
2018-01-27T16:24:59.203Z,18.80
2018-01-27T16:27:26.802Z,17.43
2018-01-27T16:29:54.338Z,17.70
2018-01-27T16:32:21.879Z,19.40
2018-01-27T16:34:49.726Z,17.33
2018-01-27T16:37:18.086Z,16.87
2018-01-27T16:39:45.613Z,17.80
2018-01-27T16:42:14.418Z,18.37
2018-01-27T16:44:41.978Z,19.23
2018-01-27T16:47:09.509Z,18.70
2018-01-27T16:49:37.082Z,18.73
2018-01-27T16:52:04.614Z,20.10
2018-01-27T16:54:32.152Z,19.60
2018-01-27T16:56:59.752Z,18.97
2018-01-27T16:59:27.305Z,18.57
2018-01-27T17:01:54.872Z,18.53
2018-01-27T17:04:22.406Z,19.77
2018-01-27T17:06:49.970Z,19.53
2018-01-27T17:09:17.490Z,19.57
2018-01-27T17:11:45.091Z,19.83
2018-01-27T17:14:12.623Z,19.60
2018-01-27T17:16:40.174Z,18.93
2018-01-27T17:19:08.507Z,19.70
2018-01-27T17:21:36.044Z,19.30
2018-01-27T17:24:04.847Z,21.13
2018-01-27T17:26:32.423Z,19.73
2018-01-27T17:28:59.976Z,21.13
2018-01-27T17:31:27.501Z,21.70
2018-01-27T17:33:55.112Z,21.23
2018-01-27T17:36:22.644Z,19.27
2018-01-27T17:38:50.173Z,18.87
2018-01-27T17:41:17.728Z,19.20
2018-01-27T17:43:45.285Z,19.20
2018-01-27T17:46:13.580Z,20.80
2018-01-27T17:48:41.116Z,19.23
2018-01-27T17:51:08.698Z,20.07
2018-01-27T17:53:36.267Z,19.73
2018-01-27T17:56:03.881Z,19.27
2018-01-27T17:58:31.717Z,19.63
2018-01-27T18:00:59.289Z,19.87
2018-01-27T18:03:26.864Z,19.30
2018-01-27T18:05:54.421Z,20.77
2018-01-27T18:08:22.737Z,18.60
2018-01-27T18:10:50.287Z,19.50
2018-01-27T18:13:17.838Z,20.07
2018-01-27T18:15:46.195Z,20.43
2018-01-27T18:18:13.768Z,19.37
2018-01-27T18:20:42.075Z,20.90
2018-01-27T18:23:09.653Z,20.27
2018-01-27T18:25:37.201Z,19.97
2018-01-27T18:28:04.734Z,20.27
2018-01-27T18:30:32.340Z,19.87
2018-01-27T18:32:59.915Z,20.07
2018-01-27T18:35:27.478Z,20.40
2018-01-27T18:37:55.026Z,20.10
2018-01-27T18:40:22.586Z,20.67
2018-01-27T18:42:50.156Z,21.20
2018-01-27T18:45:17.694Z,22.07
2018-01-27T18:47:45.260Z,21.70
2018-01-27T18:50:12.782Z,22.70
2018-01-27T18:52:40.307Z,22.50
2018-01-27T18:55:07.840Z,24.87
2018-01-27T18:57:35.401Z,22.03
2018-01-27T19:00:02.964Z,22.37
2018-01-27T19:02:30.528Z,21.20
2018-01-27T19:04:58.078Z,22.57
2018-01-27T19:07:26.781Z,22.47
2018-01-27T19:09:54.308Z,21.93
2018-01-27T19:12:23.022Z,22.27
2018-01-27T19:14:50.810Z,21.93
2018-01-27T19:17:18.411Z,22.67
2018-01-27T19:19:45.917Z,22.37
2018-01-27T19:22:13.436Z,20.77
2018-01-27T19:24:41.059Z,21.90
2018-01-27T19:27:08.581Z,20.53
2018-01-27T19:29:38.111Z,21.23
2018-01-27T19:32:05.673Z,21.30
2018-01-27T19:34:33.980Z,20.87
2018-01-27T19:37:01.593Z,20.60
2018-01-27T19:39:30.335Z,21.37
2018-01-27T19:41:57.871Z,20.77
2018-01-27T19:44:25.406Z,21.87
2018-01-27T19:46:52.958Z,20.80
2018-01-27T19:49:20.507Z,20.93
2018-01-27T19:51:48.074Z,22.53
2018-01-27T19:54:15.625Z,22.30
2018-01-27T19:56:43.215Z,21.87
2018-01-27T19:59:10.743Z,21.67
2018-01-27T20:01:38.312Z,20.90
2018-01-27T20:04:05.853Z,21.47
2018-01-27T20:06:33.397Z,21.50
2018-01-27T20:09:00.964Z,21.47
2018-01-27T20:11:29.691Z,21.77
2018-01-27T20:13:57.229Z,22.20
2018-01-27T20:16:25.636Z,22.43
2018-01-27T20:18:53.997Z,23.47
2018-01-27T20:21:21.529Z,22.20
2018-01-27T20:23:49.059Z,23.20
2018-01-27T20:26:16.587Z,21.77
2018-01-27T20:28:44.125Z,22.43
2018-01-27T20:31:11.758Z,23.23
2018-01-27T20:33:39.349Z,22.30
2018-01-27T20:36:06.937Z,20.90
2018-01-27T20:38:34.504Z,22.67
2018-01-27T20:41:03.679Z,23.57
2018-01-27T20:43:31.231Z,23.90
2018-01-27T20:45:58.833Z,24.00
2018-01-27T20:48:26.379Z,24.23
2018-01-27T20:50:53.923Z,24.30
2018-01-27T20:53:22.333Z,24.43
2018-01-27T20:55:49.856Z,24.97
2018-01-27T20:58:17.417Z,22.83
2018-01-27T21:00:45.032Z,29.00
2018-01-27T21:03:13.381Z,25.57
2018-01-27T21:05:40.962Z,26.63
2018-01-27T21:08:08.583Z,24.63
2018-01-27T21:10:36.154Z,25.13
2018-01-27T21:13:03.694Z,26.37
2018-01-27T21:15:31.246Z,24.73
2018-01-27T21:17:58.781Z,27.33
2018-01-27T21:20:26.320Z,26.80
2018-01-27T21:22:53.923Z,27.77
2018-01-27T21:25:21.443Z,26.93
2018-01-27T21:27:48.966Z,25.80
2018-01-27T21:30:16.549Z,27.83
2018-01-27T21:32:44.085Z,26.17
2018-01-27T21:35:11.607Z,29.47
2018-01-27T21:37:39.159Z,27.90
2018-01-27T21:40:07.601Z,26.30
2018-01-27T21:42:35.125Z,26.07
2018-01-27T21:45:02.730Z,26.80
2018-01-27T21:47:30.257Z,26.50
2018-01-27T21:49:57.811Z,27.60
2018-01-27T21:52:25.379Z,26.20
2018-01-27T21:54:52.928Z,27.07
2018-01-27T21:57:20.450Z,27.50
2018-01-27T21:59:48.809Z,27.63
2018-01-27T22:02:16.315Z,29.67
2018-01-27T22:04:43.811Z,34.63
2018-01-27T22:07:11.343Z,31.50
2018-01-27T22:09:38.869Z,32.57
2018-01-27T22:12:06.414Z,30.80
2018-01-27T22:14:33.951Z,32.03
2018-01-27T22:17:01.460Z,32.37
2018-01-27T22:19:28.966Z,28.97
2018-01-27T22:21:56.490Z,28.27
2018-01-27T22:24:24.020Z,28.83
2018-01-27T22:26:51.548Z,29.53
2018-01-27T22:29:19.059Z,28.93
2018-01-27T22:31:46.569Z,27.83
2018-01-27T22:34:14.082Z,28.63
2018-01-27T22:36:41.614Z,28.83
2018-01-27T22:39:09.104Z,28.77
2018-01-27T22:41:36.616Z,30.23
2018-01-27T22:44:04.122Z,28.70
2018-01-27T22:46:31.623Z,28.70
2018-01-27T22:48:59.123Z,28.27
2018-01-27T22:51:26.659Z,26.37
2018-01-27T22:53:54.164Z,27.03
2018-01-27T22:56:21.688Z,28.43
2018-01-27T22:58:49.227Z,28.20
2018-01-27T23:01:20.679Z,28.13
2018-01-27T23:03:48.179Z,27.47
2018-01-27T23:06:15.707Z,27.87
2018-01-27T23:08:43.199Z,29.20
2018-01-27T23:11:10.706Z,28.17
2018-01-27T23:13:38.222Z,26.93
2018-01-27T23:16:05.715Z,26.87
2018-01-27T23:18:33.229Z,30.03
2018-01-27T23:21:00.774Z,28.47
2018-01-27T23:23:28.325Z,27.33
2018-01-27T23:25:55.834Z,26.60
2018-01-27T23:28:24.120Z,27.97
2018-01-27T23:30:51.618Z,27.40
2018-01-27T23:33:19.119Z,29.37
2018-01-27T23:35:46.640Z,29.97
2018-01-27T23:38:14.149Z,30.93
2018-01-27T23:40:41.643Z,29.13
2018-01-27T23:43:09.161Z,26.53
2018-01-27T23:45:36.658Z,28.53
2018-01-27T23:48:04.169Z,30.07
2018-01-27T23:50:32.443Z,31.50
2018-01-27T23:53:00.745Z,31.30
2018-01-27T23:55:28.253Z,30.43
2018-01-27T23:57:55.751Z,28.73
